PQV YMMB-YBDG
Flight info
| Callsign | PQV |
|---|---|
| Flight time | 0h 39m |
| Altitude | 8000 |
| Route | MB ML DOTPA DOVUT |
| Aircraft | SR22/L-V/N |
Departure
| Time | 2026-05-09 05:56 |
|---|---|
| Airport | Melbourne Moorabbin Airport (YMMB) |
Arrival
| Time | 2026-05-09 06:35 |
|---|---|
| Airport | Bendigo Airport (YBDG) |
| Time | Latitude | Longitude | Altitude | Speed | Heading |
|---|---|---|---|---|---|
| 2026-05-09 05:50 | -37.97460 | 145.09500 | 64 ft | 0 kts | 279° |
| 2026-05-09 05:53 | -37.97449 | 145.09480 | 64 ft | 7 kts | 329° |
| 2026-05-09 05:53 | -37.97380 | 145.09465 | 64 ft | 13 kts | 8° |
| 2026-05-09 05:53 | -37.97261 | 145.09488 | 62 ft | 20 kts | 8° |
| 2026-05-09 05:54 | -37.97152 | 145.09592 | 62 ft | 17 kts | 61° |
| 2026-05-09 05:54 | -37.97127 | 145.09753 | 63 ft | 16 kts | 89° |
| 2026-05-09 05:54 | -37.97173 | 145.09837 | 63 ft | 8 kts | 117° |
| 2026-05-09 05:54 | -37.97179 | 145.09862 | 62 ft | 0 kts | 90° |
| 2026-05-09 05:55 | -37.97179 | 145.09885 | 62 ft | 14 kts | 90° |
| 2026-05-09 05:56 | -37.97319 | 145.09943 | 60 ft | 54 kts | 176° |
| 2026-05-09 05:56 | -37.97903 | 145.09993 | 134 ft | 102 kts | 175° |
| 2026-05-09 05:56 | -37.98692 | 145.10065 | 418 ft | 118 kts | 172° |
| 2026-05-09 05:56 | -37.99398 | 145.10532 | 835 ft | 120 kts | 127° |
| 2026-05-09 05:57 | -37.99383 | 145.11559 | 1224 ft | 132 kts | 50° |
| 2026-05-09 05:57 | -37.98529 | 145.11743 | 1550 ft | 139 kts | 327° |
| 2026-05-09 05:57 | -37.97861 | 145.10817 | 1863 ft | 143 kts | 303° |
| 2026-05-09 05:57 | -37.97346 | 145.09888 | 2503 ft | 123 kts | 301° |
| 2026-05-09 05:58 | -37.96865 | 145.08977 | 2905 ft | 128 kts | 299° |
| 2026-05-09 05:58 | -37.96318 | 145.08073 | 3287 ft | 133 kts | 322° |
| 2026-05-09 05:58 | -37.95544 | 145.07484 | 3791 ft | 127 kts | 331° |
| 2026-05-09 05:58 | -37.94803 | 145.06897 | 4221 ft | 129 kts | 324° |
| 2026-05-09 05:59 | -37.94053 | 145.06250 | 4643 ft | 131 kts | 326° |
| 2026-05-09 05:59 | -37.93288 | 145.05620 | 5058 ft | 132 kts | 326° |
| 2026-05-09 05:59 | -37.92518 | 145.05002 | 5472 ft | 132 kts | 326° |
| 2026-05-09 05:59 | -37.91740 | 145.04384 | 5862 ft | 134 kts | 326° |
| 2026-05-09 06:00 | -37.90939 | 145.03751 | 6264 ft | 136 kts | 326° |
| 2026-05-09 06:00 | -37.90144 | 145.03124 | 6659 ft | 136 kts | 327° |
| 2026-05-09 06:00 | -37.89324 | 145.02478 | 7036 ft | 139 kts | 327° |
| 2026-05-09 06:00 | -37.88509 | 145.01836 | 7426 ft | 140 kts | 327° |
| 2026-05-09 06:01 | -37.87689 | 145.01190 | 7813 ft | 141 kts | 328° |
| 2026-05-09 06:01 | -37.86797 | 145.00488 | 7945 ft | 160 kts | 328° |
| 2026-05-09 06:01 | -37.85795 | 144.99701 | 7961 ft | 177 kts | 328° |
| 2026-05-09 06:01 | -37.84706 | 144.98845 | 7965 ft | 187 kts | 328° |
| 2026-05-09 06:02 | -37.83585 | 144.97966 | 7953 ft | 192 kts | 328° |
| 2026-05-09 06:02 | -37.82457 | 144.97080 | 7949 ft | 191 kts | 328° |
| 2026-05-09 06:02 | -37.81329 | 144.96194 | 7948 ft | 189 kts | 327° |
| 2026-05-09 06:02 | -37.80215 | 144.95320 | 7954 ft | 187 kts | 327° |
| 2026-05-09 06:03 | -37.79102 | 144.94446 | 7963 ft | 186 kts | 327° |
| 2026-05-09 06:03 | -37.78006 | 144.93587 | 7963 ft | 189 kts | 327° |
| 2026-05-09 06:03 | -37.76869 | 144.92696 | 7966 ft | 192 kts | 327° |
| 2026-05-09 06:03 | -37.75745 | 144.91815 | 7955 ft | 188 kts | 327° |
| 2026-05-09 06:04 | -37.74629 | 144.90941 | 7955 ft | 186 kts | 327° |
| 2026-05-09 06:04 | -37.73523 | 144.90074 | 7957 ft | 185 kts | 327° |
| 2026-05-09 06:04 | -37.72443 | 144.89229 | 7958 ft | 184 kts | 327° |
| 2026-05-09 06:04 | -37.71343 | 144.88368 | 7957 ft | 184 kts | 327° |
| 2026-05-09 06:05 | -37.70259 | 144.87520 | 7955 ft | 184 kts | 327° |
| 2026-05-09 06:05 | -37.69166 | 144.86665 | 7957 ft | 184 kts | 328° |
| 2026-05-09 06:05 | -37.68077 | 144.85815 | 7960 ft | 183 kts | 327° |
| 2026-05-09 06:05 | -37.66993 | 144.84967 | 7961 ft | 183 kts | 327° |
| 2026-05-09 06:06 | -37.65912 | 144.84105 | 7963 ft | 184 kts | 325° |
| 2026-05-09 06:06 | -37.64844 | 144.83200 | 7962 ft | 185 kts | 325° |
| 2026-05-09 06:06 | -37.63784 | 144.82298 | 7962 ft | 185 kts | 325° |
| 2026-05-09 06:06 | -37.62717 | 144.81389 | 7959 ft | 185 kts | 325° |
| 2026-05-09 06:07 | -37.61641 | 144.80470 | 7958 ft | 185 kts | 325° |
| 2026-05-09 06:07 | -37.60580 | 144.79565 | 7958 ft | 185 kts | 325° |
| 2026-05-09 06:07 | -37.59866 | 144.78958 | 7953 ft | 185 kts | 326° |
| 2026-05-09 06:07 | -37.58442 | 144.77745 | 7947 ft | 184 kts | 326° |
| 2026-05-09 06:08 | -37.57377 | 144.76837 | 7944 ft | 185 kts | 326° |
| 2026-05-09 06:08 | -37.56304 | 144.75925 | 7939 ft | 185 kts | 326° |
| 2026-05-09 06:08 | -37.55231 | 144.75012 | 7934 ft | 185 kts | 326° |
| 2026-05-09 06:08 | -37.54165 | 144.74106 | 7935 ft | 185 kts | 326° |
| 2026-05-09 06:09 | -37.53107 | 144.73206 | 7933 ft | 185 kts | 326° |
| 2026-05-09 06:09 | -37.52027 | 144.72288 | 7938 ft | 185 kts | 326° |
| 2026-05-09 06:09 | -37.50963 | 144.71384 | 7935 ft | 185 kts | 326° |
| 2026-05-09 06:09 | -37.49882 | 144.70467 | 7933 ft | 186 kts | 326° |
| 2026-05-09 06:10 | -37.48811 | 144.69556 | 7928 ft | 186 kts | 326° |
| 2026-05-09 06:10 | -37.47739 | 144.68646 | 7922 ft | 186 kts | 327° |
| 2026-05-09 06:10 | -37.46650 | 144.67722 | 7921 ft | 186 kts | 327° |
| 2026-05-09 06:10 | -37.45579 | 144.66814 | 7925 ft | 186 kts | 327° |
| 2026-05-09 06:11 | -37.44513 | 144.65909 | 7921 ft | 186 kts | 327° |
| 2026-05-09 06:11 | -37.43436 | 144.64996 | 7920 ft | 186 kts | 326° |
| 2026-05-09 06:11 | -37.42354 | 144.64079 | 7920 ft | 185 kts | 327° |
| 2026-05-09 06:11 | -37.41641 | 144.63475 | 7919 ft | 185 kts | 326° |
| 2026-05-09 06:12 | -37.40206 | 144.62260 | 7920 ft | 185 kts | 326° |
| 2026-05-09 06:12 | -37.39135 | 144.61353 | 7920 ft | 185 kts | 326° |
| 2026-05-09 06:12 | -37.38073 | 144.60455 | 7916 ft | 185 kts | 327° |
| 2026-05-09 06:12 | -37.36998 | 144.59546 | 7917 ft | 186 kts | 327° |
| 2026-05-09 06:13 | -37.35918 | 144.58632 | 7920 ft | 186 kts | 327° |
| 2026-05-09 06:13 | -37.34841 | 144.57721 | 7920 ft | 186 kts | 327° |
| 2026-05-09 06:13 | -37.33758 | 144.56805 | 7920 ft | 186 kts | 327° |
| 2026-05-09 06:13 | -37.32686 | 144.55901 | 7919 ft | 186 kts | 327° |
| 2026-05-09 06:14 | -37.31602 | 144.54985 | 7916 ft | 186 kts | 327° |
| 2026-05-09 06:14 | -37.30534 | 144.54083 | 7917 ft | 186 kts | 327° |
| 2026-05-09 06:14 | -37.29449 | 144.53168 | 7914 ft | 186 kts | 327° |
| 2026-05-09 06:14 | -37.28374 | 144.52260 | 7914 ft | 183 kts | 327° |
| 2026-05-09 06:15 | -37.27415 | 144.51451 | 7890 ft | 147 kts | 328° |
| 2026-05-09 06:15 | -37.26648 | 144.50803 | 7887 ft | 122 kts | 328° |
| 2026-05-09 06:15 | -37.25920 | 144.50238 | 7927 ft | 131 kts | 330° |
| 2026-05-09 06:15 | -37.25064 | 144.49600 | 7937 ft | 155 kts | 331° |
| 2026-05-09 06:16 | -37.24084 | 144.48869 | 7928 ft | 169 kts | 330° |
| 2026-05-09 06:16 | -37.23035 | 144.48093 | 7873 ft | 181 kts | 330° |
| 2026-05-09 06:16 | -37.21918 | 144.47266 | 7759 ft | 190 kts | 331° |
| 2026-05-09 06:16 | -37.20757 | 144.46407 | 7646 ft | 195 kts | 330° |
| 2026-05-09 06:17 | -37.19579 | 144.45537 | 7527 ft | 197 kts | 331° |
| 2026-05-09 06:17 | -37.18384 | 144.44656 | 7401 ft | 198 kts | 331° |
| 2026-05-09 06:17 | -37.17588 | 144.44070 | 7317 ft | 199 kts | 331° |
| 2026-05-09 06:17 | -37.16009 | 144.42908 | 7161 ft | 199 kts | 331° |
| 2026-05-09 06:18 | -37.14801 | 144.42018 | 7038 ft | 199 kts | 332° |
| 2026-05-09 06:18 | -37.13606 | 144.41141 | 6921 ft | 199 kts | 332° |
| 2026-05-09 06:18 | -37.12420 | 144.40269 | 6802 ft | 199 kts | 331° |
| 2026-05-09 06:18 | -37.11209 | 144.39378 | 6635 ft | 201 kts | 332° |
| 2026-05-09 06:19 | -37.10041 | 144.38521 | 6411 ft | 195 kts | 332° |
| 2026-05-09 06:19 | -37.08872 | 144.37663 | 6190 ft | 193 kts | 332° |
| 2026-05-09 06:19 | -37.07702 | 144.36804 | 5965 ft | 191 kts | 332° |
| 2026-05-09 06:19 | -37.06564 | 144.35969 | 5746 ft | 190 kts | 332° |
| 2026-05-09 06:20 | -37.05421 | 144.35132 | 5522 ft | 189 kts | 332° |
| 2026-05-09 06:20 | -37.04280 | 144.34294 | 5298 ft | 188 kts | 332° |
| 2026-05-09 06:20 | -37.03161 | 144.33475 | 5077 ft | 187 kts | 332° |
| 2026-05-09 06:20 | -37.02416 | 144.32928 | 4930 ft | 186 kts | 332° |
| 2026-05-09 06:21 | -37.00911 | 144.31863 | 4624 ft | 184 kts | 341° |
| 2026-05-09 06:21 | -37.00075 | 144.31728 | 4470 ft | 179 kts | 11° |
| 2026-05-09 06:21 | -36.98843 | 144.32826 | 4169 ft | 165 kts | 69° |
| 2026-05-09 06:21 | -36.98835 | 144.34180 | 4039 ft | 152 kts | 116° |
| 2026-05-09 06:22 | -36.99594 | 144.35004 | 4022 ft | 145 kts | 161° |
| 2026-05-09 06:22 | -37.00250 | 144.35110 | 4026 ft | 142 kts | 172° |
| 2026-05-09 06:22 | -37.01548 | 144.35228 | 4027 ft | 137 kts | 172° |
| 2026-05-09 06:22 | -37.02483 | 144.35313 | 4025 ft | 135 kts | 172° |
| 2026-05-09 06:23 | -37.03109 | 144.35370 | 4027 ft | 134 kts | 172° |
| 2026-05-09 06:23 | -37.04039 | 144.35440 | 4025 ft | 133 kts | 177° |
| 2026-05-09 06:23 | -37.05081 | 144.34630 | 4027 ft | 144 kts | 237° |
| 2026-05-09 06:23 | -37.05249 | 144.33801 | 4027 ft | 148 kts | 267° |
| 2026-05-09 06:24 | -37.04617 | 144.32314 | 4028 ft | 150 kts | 327° |
| 2026-05-09 06:24 | -37.03983 | 144.32008 | 4031 ft | 147 kts | 353° |
| 2026-05-09 06:24 | -37.02626 | 144.31932 | 4030 ft | 146 kts | 3° |
| 2026-05-09 06:24 | -37.01599 | 144.31827 | 4034 ft | 148 kts | 353° |
| 2026-05-09 06:25 | -37.00597 | 144.31902 | 4034 ft | 146 kts | 8° |
| 2026-05-09 06:25 | -36.99564 | 144.31937 | 4029 ft | 147 kts | 6° |
| 2026-05-09 06:25 | -36.98533 | 144.31975 | 4025 ft | 148 kts | 6° |
| 2026-05-09 06:25 | -36.97498 | 144.32016 | 4024 ft | 147 kts | 6° |
| 2026-05-09 06:26 | -36.96487 | 144.32057 | 4024 ft | 146 kts | 6° |
| 2026-05-09 06:26 | -36.95464 | 144.32100 | 4023 ft | 146 kts | 6° |
| 2026-05-09 06:26 | -36.94441 | 144.32143 | 4026 ft | 146 kts | 5° |
| 2026-05-09 06:26 | -36.93759 | 144.32172 | 4027 ft | 146 kts | 5° |
| 2026-05-09 06:27 | -36.92738 | 144.32214 | 4024 ft | 146 kts | 5° |
| 2026-05-09 06:27 | -36.91354 | 144.32272 | 3877 ft | 155 kts | 5° |
| 2026-05-09 06:27 | -36.90341 | 144.32314 | 3680 ft | 137 kts | 6° |
| 2026-05-09 06:27 | -36.89434 | 144.32352 | 3513 ft | 121 kts | 6° |
| 2026-05-09 06:28 | -36.88631 | 144.32385 | 3365 ft | 110 kts | 6° |
| 2026-05-09 06:28 | -36.87873 | 144.32417 | 3232 ft | 106 kts | 6° |
| 2026-05-09 06:28 | -36.87136 | 144.32448 | 3105 ft | 106 kts | 6° |
| 2026-05-09 06:28 | -36.86643 | 144.32469 | 3020 ft | 106 kts | 6° |
| 2026-05-09 06:29 | -36.85644 | 144.32510 | 2852 ft | 109 kts | 6° |
| 2026-05-09 06:29 | -36.84870 | 144.32544 | 2719 ft | 112 kts | 6° |
| 2026-05-09 06:29 | -36.84084 | 144.32576 | 2587 ft | 113 kts | 5° |
| 2026-05-09 06:29 | -36.83325 | 144.32608 | 2492 ft | 108 kts | 5° |
| 2026-05-09 06:30 | -36.82559 | 144.32642 | 2334 ft | 109 kts | 5° |
| 2026-05-09 06:30 | -36.82055 | 144.32661 | 2230 ft | 109 kts | 5° |
| 2026-05-09 06:30 | -36.81062 | 144.32787 | 2022 ft | 107 kts | 26° |
| 2026-05-09 06:30 | -36.80414 | 144.33228 | 1879 ft | 105 kts | 34° |
| 2026-05-09 06:31 | -36.79764 | 144.33688 | 1737 ft | 107 kts | 35° |
| 2026-05-09 06:31 | -36.79122 | 144.34149 | 1603 ft | 107 kts | 33° |
| 2026-05-09 06:31 | -36.78395 | 144.34351 | 1516 ft | 107 kts | 8° |
| 2026-05-09 06:31 | -36.77685 | 144.34445 | 1537 ft | 101 kts | 6° |
| 2026-05-09 06:32 | -36.76966 | 144.34508 | 1605 ft | 103 kts | 4° |
| 2026-05-09 06:32 | -36.76239 | 144.34543 | 1661 ft | 106 kts | 2° |
| 2026-05-09 06:32 | -36.75743 | 144.34569 | 1704 ft | 107 kts | 4° |
| 2026-05-09 06:33 | -36.74198 | 144.34685 | 1744 ft | 113 kts | 4° |
| 2026-05-09 06:33 | -36.73136 | 144.34697 | 1802 ft | 113 kts | 360° |
| 2026-05-09 06:33 | -36.72355 | 144.34677 | 1848 ft | 113 kts | 1° |
| 2026-05-09 06:34 | -36.70834 | 144.34558 | 1717 ft | 106 kts | 322° |
| 2026-05-09 06:34 | -36.70604 | 144.33768 | 1439 ft | 100 kts | 260° |
| 2026-05-09 06:34 | -36.70924 | 144.33112 | 1220 ft | 85 kts | 201° |
| 2026-05-09 06:34 | -36.71519 | 144.33086 | 1025 ft | 85 kts | 175° |
| 2026-05-09 06:35 | -36.72107 | 144.33070 | 886 ft | 84 kts | 178° |
| 2026-05-09 06:35 | -36.72683 | 144.33052 | 760 ft | 78 kts | 178° |
| 2026-05-09 06:35 | -36.73018 | 144.33040 | 694 ft | 64 kts | 179° |
| 2026-05-09 06:35 | -36.73491 | 144.33022 | 691 ft | 39 kts | 179° |
| 2026-05-09 06:36 | -36.73647 | 144.33014 | 693 ft | 28 kts | 181° |
| 2026-05-09 06:36 | -36.73730 | 144.32930 | 691 ft | 10 kts | 271° |
| 2026-05-09 06:36 | -36.73727 | 144.32835 | 688 ft | 15 kts | 269° |
| 2026-05-09 06:36 | -36.73793 | 144.32756 | 687 ft | 13 kts | 189° |
| 2026-05-09 06:37 | -36.73818 | 144.32716 | 686 ft | 3 kts | 278° |
| 2026-05-09 06:37 | -36.73817 | 144.32713 | 686 ft | 0 kts | 272° |